Time;durP1;ratioP1;P1;durP2;ratioP2;P2;SDS_P1;SDS_P2;PMS_P1;PMS_P2;Temp;Humidity;BMP_temperature;BMP_pressure;BME280_temperature;BME280_humidity;BME280_pressure;Samples;Min_cycle;Max_cycle;Signal;HPM_P1;HPM_P2
2023/12/11 00:00:13;;;;;;;15.23;13.82;;;5.70;99.90;;;;;;5184865;28;20017;-77
2023/12/11 00:02:44;;;;;;;13.52;12.20;;;5.70;99.90;;;;;;5184988;28;20539;-75
2023/12/11 00:05:15;;;;;;;15.57;14.02;;;5.80;99.90;;;;;;5167067;28;20033;-74
2023/12/11 00:07:46;;;;;;;15.98;13.40;;;5.70;99.90;;;;;;5184915;28;20022;-75
2023/12/11 00:10:17;;;;;;;15.68;13.68;;;5.80;99.90;;;;;;5166969;28;20026;-75
2023/12/11 00:12:48;;;;;;;12.77;11.60;;;5.80;99.90;;;;;;5184815;28;20032;-75
2023/12/11 00:15:19;;;;;;;15.10;13.60;;;5.70;99.90;;;;;;5184978;28;20029;-75
2023/12/11 00:17:50;;;;;;;14.20;12.70;;;5.70;99.90;;;;;;5183801;28;20097;-77
2023/12/11 00:20:21;;;;;;;15.40;12.02;;;5.60;99.90;;;;;;5183984;28;20160;-76
2023/12/11 00:22:51;;;;;;;14.15;12.65;;;5.80;99.90;;;;;;5183766;28;20038;-77
2023/12/11 00:25:22;;;;;;;14.35;13.05;;;5.90;99.90;;;;;;5184024;28;20500;-76
2023/12/11 00:27:53;;;;;;;15.63;14.13;;;6.10;99.90;;;;;;5184109;28;20053;-78
2023/12/11 00:30:24;;;;;;;16.60;15.00;;;6.10;99.90;;;;;;5183729;28;20069;-75
2023/12/11 00:32:55;;;;;;;17.00;15.32;;;6.00;99.90;;;;;;5184479;28;20034;-74
2023/12/11 00:35:26;;;;;;;25.05;21.73;;;6.10;99.90;;;;;;5653253;23;20351;-78
2023/12/11 00:37:57;;;;;;;17.20;15.50;;;6.10;99.90;;;;;;5184687;28;20128;-74
2023/12/11 00:40:28;;;;;;;15.07;13.57;;;6.10;99.90;;;;;;5184847;28;20057;-75
2023/12/11 00:42:58;;;;;;;14.27;12.93;;;5.90;99.90;;;;;;5184595;28;20034;-77
2023/12/11 00:45:29;;;;;;;14.50;13.10;;;5.90;99.90;;;;;;5184828;28;20026;-77
2023/12/11 00:48:00;;;;;;;15.00;13.02;;;5.90;99.90;;;;;;5184487;28;20025;-77
2023/12/11 00:50:31;;;;;;;12.93;11.63;;;5.90;99.90;;;;;;5184000;28;20033;-75
2023/12/11 00:53:02;;;;;;;14.07;12.77;;;5.60;99.90;;;;;;5184223;28;20376;-78
2023/12/11 00:55:33;;;;;;;13.75;12.23;;;5.60;99.90;;;;;;5183616;28;20026;-77
2023/12/11 00:58:04;;;;;;;14.20;12.07;;;5.60;99.90;;;;;;5183779;28;20026;-76
2023/12/11 01:00:35;;;;;;;15.07;13.10;;;5.70;99.90;;;;;;5183378;28;20030;-79
2023/12/11 01:03:06;;;;;;;14.23;12.75;;;5.90;99.90;;;;;;5184002;28;20069;-76
2023/12/11 01:05:37;;;;;;;14.80;13.38;;;5.90;99.90;;;;;;5177191;28;20035;-75
2023/12/11 01:08:08;;;;;;;13.95;12.65;;;5.80;99.90;;;;;;5164370;28;20073;-76
2023/12/11 01:10:38;;;;;;;13.93;12.45;;;5.70;99.90;;;;;;5165591;28;20058;-76
2023/12/11 01:13:09;;;;;;;13.95;12.73;;;5.70;99.90;;;;;;5167708;28;20515;-76
2023/12/11 01:15:40;;;;;;;13.27;11.85;;;5.80;99.90;;;;;;5167706;28;20034;-74
2023/12/11 01:18:11;;;;;;;15.30;11.20;;;5.80;99.90;;;;;;5167686;28;20030;-76
2023/12/11 01:20:42;;;;;;;14.35;11.63;;;5.70;99.90;;;;;;5150533;28;20058;-76
2023/12/11 01:23:13;;;;;;;13.40;12.10;;;5.70;99.90;;;;;;5150502;28;20104;-76
2023/12/11 01:25:44;;;;;;;13.65;12.25;;;5.90;99.90;;;;;;5167746;28;20382;-75
2023/12/11 01:28:15;;;;;;;16.38;12.05;;;5.90;99.90;;;;;;5150057;28;20022;-75
2023/12/11 01:30:46;;;;;;;16.00;13.30;;;5.80;99.90;;;;;;5150091;28;20027;-76
2023/12/11 01:33:16;;;;;;;16.52;13.23;;;5.90;99.90;;;;;;5166830;28;20022;-77
2023/12/11 01:35:47;;;;;;;15.57;12.55;;;5.70;99.90;;;;;;5166808;28;20054;-76
2023/12/11 01:38:18;;;;;;;18.25;12.27;;;5.70;99.90;;;;;;5166668;28;20109;-76
2023/12/11 01:40:49;;;;;;;15.55;12.05;;;5.70;99.90;;;;;;5166865;28;20037;-77
2023/12/11 01:43:20;;;;;;;16.15;12.23;;;5.80;99.90;;;;;;5166849;28;20066;-76
2023/12/11 01:46:13;;;;;;;14.68;13.20;;;5.90;99.90;;;;;;5166508;28;20038;-77
2023/12/11 01:48:45;;;;;;;13.10;11.68;;;5.80;99.90;;;;;;5166524;28;20049;-77
2023/12/11 01:51:18;;;;;;;15.80;12.48;;;5.80;99.90;;;;;;5166942;28;20022;-75
2023/12/11 01:53:50;;;;;;;14.25;12.13;;;5.70;99.90;;;;;;5167071;28;20053;-77
2023/12/11 01:56:21;;;;;;;14.95;13.48;;;5.80;99.90;;;;;;5149652;28;20015;-75
2023/12/11 01:58:52;;;;;;;13.48;11.63;;;5.90;99.90;;;;;;5167052;28;20038;-77
2023/12/11 02:01:26;;;;;;;13.55;12.25;;;5.90;99.90;;;;;;5167248;28;20037;-78
2023/12/11 02:03:57;;;;;;;17.52;12.90;;;5.90;99.90;;;;;;5149530;28;20601;-77
2023/12/11 02:06:29;;;;;;;13.43;12.10;;;5.60;99.90;;;;;;5166729;28;20109;-77
2023/12/11 02:09:00;;;;;;;15.68;11.90;;;5.70;99.90;;;;;;5167041;28;20038;-75
2023/12/11 02:11:31;;;;;;;12.52;11.25;;;5.60;99.90;;;;;;5167015;28;20382;-77
2023/12/11 02:14:02;;;;;;;15.32;12.13;;;5.60;99.90;;;;;;5149629;28;20034;-77
2023/12/11 02:16:34;;;;;;;14.82;11.88;;;5.50;99.90;;;;;;5166830;28;20030;-78
2023/12/11 02:19:05;;;;;;;15.63;11.77;;;5.50;99.90;;;;;;5166844;28;20080;-78
2023/12/11 02:21:36;;;;;;;18.20;11.30;;;5.40;99.90;;;;;;5149463;28;20034;-76
2023/12/11 02:24:13;;;;;;;14.73;11.40;;;5.30;99.90;;;;;;5166384;28;20045;-76
2023/12/11 02:26:44;;;;;;;13.55;11.05;;;5.30;99.90;;;;;;5165902;28;20037;-75
2023/12/11 02:29:15;;;;;;;12.93;11.73;;;5.20;99.90;;;;;;5166380;28;20090;-76
2023/12/11 02:31:46;;;;;;;16.75;11.45;;;5.20;99.90;;;;;;5166140;28;20022;-76
2023/12/11 02:34:17;;;;;;;13.90;11.85;;;5.40;99.90;;;;;;5148695;28;20112;-76
2023/12/11 02:36:48;;;;;;;12.93;11.43;;;5.30;99.90;;;;;;5165381;28;20058;-77
2023/12/11 02:39:19;;;;;;;13.98;11.55;;;5.50;99.90;;;;;;5166417;28;20065;-75
2023/12/11 02:41:50;;;;;;;15.80;12.02;;;5.50;99.90;;;;;;5149418;28;20109;-75
2023/12/11 02:44:21;;;;;;;14.10;12.65;;;5.50;99.90;;;;;;5166565;28;20030;-75
2023/12/11 02:46:51;;;;;;;14.77;12.02;;;5.60;99.90;;;;;;5149384;28;20027;-75
2023/12/11 02:49:22;;;;;;;20.00;12.43;;;5.60;99.90;;;;;;5166820;28;20027;-76
2023/12/11 02:51:53;;;;;;;14.40;11.02;;;5.70;99.90;;;;;;5166658;28;20030;-75
2023/12/11 02:54:24;;;;;;;14.35;12.85;;;5.50;99.90;;;;;;5166248;28;20030;-75
2023/12/11 02:56:55;;;;;;;13.70;12.30;;;5.60;99.90;;;;;;5148736;28;20476;-76
2023/12/11 02:59:26;;;;;;;18.25;12.50;;;5.50;99.90;;;;;;5166793;28;20033;-74
2023/12/11 03:01:57;;;;;;;13.45;12.10;;;5.60;99.90;;;;;;5166527;28;20018;-76
2023/12/11 03:04:27;;;;;;;13.13;11.80;;;5.70;99.90;;;;;;5165767;28;20049;-75
2023/12/11 03:06:58;;;;;;;13.85;12.50;;;5.60;99.90;;;;;;5148621;28;20110;-77
2023/12/11 03:09:29;;;;;;;13.63;12.05;;;5.80;99.90;;;;;;5165751;28;20045;-77
2023/12/11 03:12:00;;;;;;;12.98;11.52;;;5.90;99.90;;;;;;5165848;28;20698;-76
2023/12/11 03:14:31;;;;;;;14.45;12.52;;;6.00;99.90;;;;;;5165929;28;20088;-76
2023/12/11 03:17:02;;;;;;;14.77;13.25;;;5.90;99.90;;;;;;5148522;28;20793;-77
2023/12/11 03:19:33;;;;;;;14.98;11.63;;;5.90;99.90;;;;;;5165864;28;20034;-77
2023/12/11 03:22:04;;;;;;;14.55;12.73;;;5.80;99.90;;;;;;5165974;28;20038;-76
2023/12/11 03:24:35;;;;;;;16.55;12.15;;;5.90;99.90;;;;;;5165813;28;20070;-78
2023/12/11 03:27:06;;;;;;;16.92;12.57;;;6.00;99.90;;;;;;5166169;28;20081;-76
2023/12/11 03:29:37;;;;;;;17.40;12.20;;;5.90;99.90;;;;;;5163317;28;20030;-76
2023/12/11 03:32:08;;;;;;;14.88;13.10;;;5.90;99.90;;;;;;5165954;28;20027;-76
2023/12/11 03:34:39;;;;;;;19.50;13.98;;;5.90;99.90;;;;;;5148029;28;20153;-77
2023/12/11 03:37:10;;;;;;;15.73;13.75;;;5.90;99.90;;;;;;5148277;28;20078;-79
2023/12/11 03:39:41;;;;;;;16.88;15.30;;;5.80;99.90;;;;;;5183760;28;20033;-79
2023/12/11 03:42:12;;;;;;;18.33;15.82;;;5.60;99.90;;;;;;5186008;28;20038;-78
2023/12/11 03:44:43;;;;;;;15.75;13.93;;;5.60;99.90;;;;;;5168133;28;20544;-77
2023/12/11 03:47:14;;;;;;;16.05;14.40;;;5.50;99.90;;;;;;5186183;28;20030;-76
2023/12/11 03:49:45;;;;;;;17.17;14.13;;;5.70;99.90;;;;;;5186177;28;20030;-78
2023/12/11 03:52:16;;;;;;;15.50;13.85;;;5.70;99.90;;;;;;5168814;28;20022;-78
2023/12/11 03:54:46;;;;;;;16.10;14.38;;;5.60;99.90;;;;;;5185897;28;20050;-76
2023/12/11 03:57:17;;;;;;;16.63;14.40;;;5.80;99.90;;;;;;5168774;28;20765;-78
2023/12/11 03:59:48;;;;;;;18.77;15.80;;;6.00;99.90;;;;;;5167931;28;20030;-77
2023/12/11 04:02:19;;;;;;;19.35;16.73;;;6.00;99.90;;;;;;5185745;28;20528;-77
2023/12/11 04:07:30;;;;;;;17.08;15.55;;;6.10;99.90;;;;;;5204572;28;20045;-79
2023/12/11 04:10:03;;;;;;;18.83;16.20;;;6.20;99.90;;;;;;5188682;28;20032;-78
2023/12/11 04:12:33;;;;;;;22.85;17.50;;;6.20;99.90;;;;;;5206508;28;20013;-76
2023/12/11 04:15:05;;;;;;;18.80;16.95;;;6.30;99.90;;;;;;5206656;28;20052;-77
2023/12/11 04:17:36;;;;;;;17.95;16.33;;;6.30;99.90;;;;;;5206758;28;20429;-77
2023/12/11 04:20:08;;;;;;;17.90;16.23;;;6.10;99.90;;;;;;5206613;28;20030;-78
2023/12/11 04:22:38;;;;;;;19.33;17.63;;;6.20;99.90;;;;;;5206696;28;20038;-78
2023/12/11 04:25:09;;;;;;;17.75;15.90;;;6.10;99.90;;;;;;5189212;28;20087;-76
2023/12/11 04:27:40;;;;;;;18.10;16.13;;;6.10;99.90;;;;;;5206704;28;20473;-76
2023/12/11 04:30:12;;;;;;;17.38;14.98;;;6.00;99.90;;;;;;5189011;28;20036;-76
2023/12/11 04:32:43;;;;;;;20.90;15.13;;;6.00;99.90;;;;;;5206417;28;20408;-78
2023/12/11 04:35:14;;;;;;;17.35;14.98;;;5.90;99.90;;;;;;5206159;28;20108;-76
2023/12/11 04:37:45;;;;;;;17.10;15.30;;;6.10;99.90;;;;;;5206563;28;20117;-78
2023/12/11 04:40:15;;;;;;;18.75;15.70;;;6.10;99.90;;;;;;5206578;28;20032;-77
2023/12/11 04:42:46;;;;;;;16.95;15.30;;;6.10;99.90;;;;;;5206454;28;20425;-77
2023/12/11 04:45:17;;;;;;;16.75;14.35;;;5.90;99.90;;;;;;5207651;28;20030;-78
2023/12/11 04:47:48;;;;;;;18.73;15.50;;;6.00;99.90;;;;;;5209968;28;20021;-78
2023/12/11 04:50:19;;;;;;;17.88;16.08;;;6.20;99.90;;;;;;5210217;28;20026;-77
2023/12/11 04:52:50;;;;;;;20.85;18.75;;;6.10;99.90;;;;;;5192308;28;20032;-78
2023/12/11 04:55:23;;;;;;;22.52;20.27;;;6.10;99.90;;;;;;5209949;28;20018;-78
2023/12/11 04:57:54;;;;;;;22.10;18.33;;;6.20;99.90;;;;;;5209902;28;20377;-77
2023/12/11 05:00:25;;;;;;;19.15;17.13;;;6.40;99.90;;;;;;5209916;28;20022;-77
2023/12/11 05:02:55;;;;;;;18.65;16.85;;;6.50;99.90;;;;;;5209820;28;20033;-78
2023/12/11 05:05:26;;;;;;;24.25;21.67;;;6.50;99.90;;;;;;5209828;28;20149;-77
2023/12/11 05:07:57;;;;;;;23.17;20.33;;;6.60;99.90;;;;;;5192463;28;20025;-77
2023/12/11 05:10:28;;;;;;;22.02;19.77;;;6.60;99.90;;;;;;5210350;28;20034;-77
2023/12/11 05:12:59;;;;;;;27.80;24.85;;;6.60;99.90;;;;;;5209952;28;20028;-77
2023/12/11 05:15:30;;;;;;;30.05;26.45;;;6.70;99.90;;;;;;5210018;28;20093;-77
2023/12/11 05:18:01;;;;;;;40.78;33.53;;;6.70;99.90;;;;;;5192297;28;20053;-76
2023/12/11 05:20:32;;;;;;;48.92;36.40;;;6.80;99.90;;;;;;5219231;28;20040;-77
2023/12/11 05:23:03;;;;;;;62.45;47.22;;;6.60;99.90;;;;;;5230042;28;20052;-78
2023/12/11 05:25:34;;;;;;;59.83;43.45;;;6.70;99.90;;;;;;5230060;28;20029;-79
2023/12/11 05:28:04;;;;;;;55.42;41.45;;;6.80;99.90;;;;;;5212195;28;20052;-79
2023/12/11 05:30:35;;;;;;;59.92;42.10;;;6.80;99.90;;;;;;5230061;28;20473;-76
2023/12/11 05:33:06;;;;;;;47.78;33.10;;;6.80;99.90;;;;;;5230161;28;20025;-78
2023/12/11 05:35:37;;;;;;;39.38;31.38;;;6.80;99.90;;;;;;5230083;28;20041;-77
2023/12/11 05:38:08;;;;;;;52.38;42.88;;;6.80;99.90;;;;;;5230138;28;20028;-77
2023/12/11 05:40:39;;;;;;;114.45;92.00;;;6.90;99.90;;;;;;5229844;28;20805;-77
2023/12/11 05:43:10;;;;;;;149.70;118.63;;;7.00;99.90;;;;;;5229696;28;20032;-76
2023/12/11 05:45:41;;;;;;;137.35;109.90;;;7.00;99.90;;;;;;5230033;28;20036;-79
2023/12/11 05:48:12;;;;;;;116.95;97.85;;;7.00;99.90;;;;;;5229749;28;20098;-77
2023/12/11 05:50:43;;;;;;;151.00;121.65;;;7.10;99.90;;;;;;5212006;28;20029;-79
2023/12/11 05:53:14;;;;;;;117.63;92.75;;;7.10;99.90;;;;;;5229485;28;20346;-79
2023/12/11 05:55:45;;;;;;;122.50;107.78;;;7.10;99.90;;;;;;5229353;28;20068;-77
2023/12/11 05:58:16;;;;;;;76.95;64.82;;;7.10;99.90;;;;;;5229416;28;20021;-78
2023/12/11 06:00:47;;;;;;;72.28;64.22;;;7.20;99.90;;;;;;5229292;28;20484;-78
2023/12/11 06:03:18;;;;;;;53.70;48.10;;;7.30;99.90;;;;;;5229380;28;20037;-77
2023/12/11 06:05:49;;;;;;;51.80;46.40;;;7.30;99.90;;;;;;5229134;28;20045;-77
2023/12/11 06:08:19;;;;;;;36.60;32.78;;;7.30;99.90;;;;;;5229381;28;20024;-76
2023/12/11 06:10:50;;;;;;;38.50;33.97;;;7.40;99.90;;;;;;5229412;28;20029;-76
2023/12/11 06:13:21;;;;;;;36.20;30.40;;;7.30;99.90;;;;;;5229605;28;20045;-76
2023/12/11 06:15:52;;;;;;;34.70;31.10;;;7.40;99.90;;;;;;5229404;28;20032;-78
2023/12/11 06:18:23;;;;;;;32.15;27.50;;;7.40;99.90;;;;;;5229343;28;20014;-77
2023/12/11 06:20:54;;;;;;;31.83;28.67;;;7.50;99.90;;;;;;5229340;28;20047;-78
2023/12/11 06:23:25;;;;;;;35.78;29.42;;;7.40;99.90;;;;;;5229381;28;20033;-76
2023/12/11 06:25:56;;;;;;;33.45;29.13;;;7.50;99.90;;;;;;5229285;28;20033;-77
2023/12/11 06:28:27;;;;;;;34.95;30.20;;;7.60;99.90;;;;;;5229193;28;20519;-78
2023/12/11 06:30:57;;;;;;;34.15;30.45;;;7.70;99.90;;;;;;5229262;28;20025;-78
2023/12/11 06:33:28;;;;;;;42.05;29.35;;;7.70;99.90;;;;;;5228960;28;20106;-78
2023/12/11 06:35:59;;;;;;;34.88;31.20;;;7.70;99.90;;;;;;5228609;28;20044;-79
2023/12/11 06:38:30;;;;;;;34.97;31.15;;;7.60;99.90;;;;;;5228640;28;20418;-78
2023/12/11 06:41:01;;;;;;;37.80;33.83;;;7.80;99.90;;;;;;5228709;28;20083;-77
2023/12/11 06:43:32;;;;;;;44.17;39.60;;;7.90;99.90;;;;;;5228567;28;20037;-77
2023/12/11 06:46:03;;;;;;;44.95;39.55;;;8.00;99.90;;;;;;5228361;28;20029;-79
2023/12/11 06:48:34;;;;;;;39.38;35.05;;;7.90;99.90;;;;;;5228413;28;20025;-78
2023/12/11 06:51:05;;;;;;;42.72;38.30;;;7.90;99.90;;;;;;5228424;28;20021;-77
2023/12/11 06:53:36;;;;;;;49.88;44.88;;;8.10;99.90;;;;;;5228578;28;20025;-78
2023/12/11 06:56:07;;;;;;;45.58;41.05;;;8.10;99.90;;;;;;5228315;28;20636;-78
2023/12/11 06:58:38;;;;;;;44.03;39.53;;;8.10;99.90;;;;;;5228810;28;20060;-77
2023/12/11 07:01:09;;;;;;;46.20;40.53;;;8.20;99.90;;;;;;5228131;28;20049;-76
2023/12/11 07:03:40;;;;;;;43.22;38.72;;;8.20;99.90;;;;;;5228333;28;20087;-77
2023/12/11 07:06:11;;;;;;;41.20;36.90;;;8.30;99.90;;;;;;5210277;28;20052;-76
2023/12/11 07:08:42;;;;;;;43.13;38.70;;;8.40;99.90;;;;;;5209863;28;20063;-78
2023/12/11 07:11:13;;;;;;;40.50;35.88;;;8.40;99.90;;;;;;5210300;28;20032;-76
2023/12/11 07:13:45;;;;;;;38.55;31.92;;;8.50;99.90;;;;;;5228015;28;20087;-76
2023/12/11 07:16:15;;;;;;;39.83;35.28;;;8.50;99.90;;;;;;5228022;28;20384;-77
2023/12/11 07:18:47;;;;;;;39.78;35.38;;;8.40;99.90;;;;;;5209326;28;20086;-78
2023/12/11 07:21:18;;;;;;;42.88;37.80;;;8.70;99.90;;;;;;5227675;28;20029;-79
2023/12/11 07:23:50;;;;;;;45.33;38.40;;;8.80;99.90;;;;;;5209979;28;20043;-77
2023/12/11 07:26:20;;;;;;;39.42;35.17;;;8.80;99.90;;;;;;5227699;28;20025;-77
2023/12/11 07:28:52;;;;;;;37.28;33.50;;;8.70;99.90;;;;;;5227794;28;20025;-76
2023/12/11 07:31:23;;;;;;;39.67;34.20;;;8.70;99.90;;;;;;5227943;28;20032;-78
2023/12/11 07:33:54;;;;;;;39.28;34.13;;;8.80;99.90;;;;;;5227411;28;20025;-77
2023/12/11 07:36:31;;;;;;;38.25;34.20;;;8.90;99.90;;;;;;5227841;28;20350;-76
2023/12/11 07:39:02;;;;;;;36.53;32.70;;;9.00;99.90;;;;;;5227405;28;20053;-77
2023/12/11 07:41:32;;;;;;;38.72;32.63;;;9.00;99.90;;;;;;5227046;28;20060;-77
2023/12/11 07:44:03;;;;;;;35.20;31.45;;;9.00;99.90;;;;;;5227027;28;20041;-77
2023/12/11 07:46:34;;;;;;;34.08;30.65;;;9.00;99.90;;;;;;5191456;28;20049;-76
2023/12/11 07:49:05;;;;;;;37.35;33.42;;;9.00;99.90;;;;;;5188880;28;20036;-77
2023/12/11 07:51:36;;;;;;;35.50;31.75;;;9.00;99.90;;;;;;5206731;28;20108;-75
2023/12/11 07:54:08;;;;;;;39.20;35.00;;;9.10;99.90;;;;;;5206815;28;20036;-77
2023/12/11 07:56:40;;;;;;;41.60;37.33;;;9.10;99.90;;;;;;5185066;28;20125;-77
2023/12/11 07:59:11;;;;;;;38.65;34.55;;;9.20;99.90;;;;;;5190305;28;20129;-77
2023/12/11 08:01:42;;;;;;;33.30;29.77;;;9.20;99.90;;;;;;5206786;28;20104;-75
2023/12/11 08:04:14;;;;;;;37.20;33.28;;;9.10;99.90;;;;;;5205748;28;20072;-77
2023/12/11 08:06:45;;;;;;;33.72;30.27;;;9.20;99.90;;;;;;5187593;28;20041;-75
2023/12/11 08:09:15;;;;;;;33.42;30.05;;;9.20;99.90;;;;;;5187713;28;20481;-75
2023/12/11 08:11:48;;;;;;;31.00;27.25;;;9.20;99.90;;;;;;5187660;28;20079;-77
2023/12/11 08:14:19;;;;;;;32.08;28.42;;;9.20;99.90;;;;;;5205658;28;20044;-75
2023/12/11 08:16:50;;;;;;;35.22;31.63;;;9.30;99.90;;;;;;5205650;28;20030;-77
2023/12/11 08:19:21;;;;;;;31.38;28.27;;;9.40;99.90;;;;;;5206703;28;20708;-76
2023/12/11 08:21:52;;;;;;;29.23;26.23;;;9.40;99.90;;;;;;5209802;28;20376;-76
2023/12/11 08:24:23;;;;;;;30.20;26.95;;;9.50;99.90;;;;;;5209703;28;20033;-76
2023/12/11 08:26:54;;;;;;;32.20;28.80;;;9.70;99.90;;;;;;5191993;28;20037;-76
2023/12/11 08:29:26;;;;;;;38.75;33.35;;;9.80;99.90;;;;;;5209619;28;20048;-75
2023/12/11 08:31:56;;;;;;;32.53;29.02;;;9.90;99.90;;;;;;5209326;28;20358;-75
2023/12/11 08:34:27;;;;;;;32.95;29.45;;;10.00;99.90;;;;;;5209014;28;20068;-76
2023/12/11 08:36:58;;;;;;;31.48;28.13;;;10.10;99.90;;;;;;5207976;28;20104;-75
2023/12/11 08:39:29;;;;;;;29.67;26.88;;;10.40;99.90;;;;;;5190715;28;20120;-75
2023/12/11 08:42:00;;;;;;;29.83;26.95;;;10.50;99.90;;;;;;5207708;28;20025;-77
2023/12/11 08:44:31;;;;;;;30.38;27.45;;;10.40;99.90;;;;;;5207860;28;20045;-75
2023/12/11 08:47:02;;;;;;;30.88;27.65;;;10.30;99.90;;;;;;5207790;28;20021;-76
2023/12/11 08:49:33;;;;;;;32.70;29.02;;;10.30;99.90;;;;;;5191121;28;20137;-77
2023/12/11 08:52:04;;;;;;;30.73;27.70;;;10.20;99.90;;;;;;5208933;28;20128;-75
2023/12/11 08:54:35;;;;;;;29.58;26.83;;;10.10;99.90;;;;;;5208795;28;20559;-76
2023/12/11 08:57:06;;;;;;;29.67;26.45;;;10.00;99.90;;;;;;5208598;28;20022;-75
2023/12/11 08:59:37;;;;;;;30.33;27.27;;;9.90;99.90;;;;;;5209017;28;20412;-77
2023/12/11 09:02:08;;;;;;;29.45;25.77;;;9.90;99.90;;;;;;5210364;28;20017;-75
2023/12/11 09:04:39;;;;;;;30.67;27.63;;;10.10;99.90;;;;;;5209026;28;20041;-75
2023/12/11 09:07:10;;;;;;;29.92;26.85;;;10.00;99.90;;;;;;5191553;28;20080;-76
2023/12/11 09:09:41;;;;;;;30.42;27.52;;;10.00;99.90;;;;;;5191561;28;20056;-75
2023/12/11 09:12:12;;;;;;;30.95;27.90;;;10.10;99.90;;;;;;5208705;28;20021;-76
2023/12/11 09:14:43;;;;;;;31.70;28.30;;;9.90;99.90;;;;;;5209153;28;20026;-75
2023/12/11 09:17:14;;;;;;;30.50;27.45;;;9.90;99.90;;;;;;5209253;28;20025;-78
2023/12/11 09:19:45;;;;;;;33.15;29.73;;;10.00;99.90;;;;;;5190695;28;20092;-77
2023/12/11 09:22:16;;;;;;;33.42;30.05;;;10.20;99.90;;;;;;5208693;28;20079;-77
2023/12/11 09:24:47;;;;;;;32.88;29.38;;;10.10;99.90;;;;;;5190588;28;20495;-77
2023/12/11 09:27:18;;;;;;;33.17;29.67;;;10.10;99.90;;;;;;5207454;28;20034;-77
2023/12/11 09:29:49;;;;;;;30.02;26.83;;;10.20;99.90;;;;;;5208158;28;20021;-75
2023/12/11 09:32:20;;;;;;;32.33;29.27;;;10.30;99.90;;;;;;5207566;28;20024;-75
2023/12/11 09:34:51;;;;;;;28.52;25.63;;;10.40;99.90;;;;;;5207605;28;20362;-77
2023/12/11 09:37:22;;;;;;;29.35;25.65;;;10.40;99.90;;;;;;5190388;28;20567;-75
2023/12/11 09:39:53;;;;;;;28.67;25.60;;;10.40;99.90;;;;;;5207326;28;20017;-77
2023/12/11 09:42:26;;;;;;;29.40;26.42;;;10.40;99.90;;;;;;5207532;28;20013;-77
2023/12/11 09:44:57;;;;;;;29.77;26.77;;;10.60;99.90;;;;;;5207434;28;20080;-75
2023/12/11 09:47:49;;;;;;;30.52;27.33;;;10.60;99.90;;;;;;5190494;28;20021;-75
2023/12/11 09:50:20;;;;;;;27.90;25.30;;;10.60;99.90;;;;;;5201676;28;20036;-75
2023/12/11 09:52:52;;;;;;;27.52;24.95;;;10.70;99.90;;;;;;5208610;28;20149;-75
2023/12/11 09:55:23;;;;;;;27.60;24.70;;;10.50;99.90;;;;;;5207683;28;20029;-75
2023/12/11 09:57:55;;;;;;;27.65;24.92;;;10.60;99.90;;;;;;5207619;28;20040;-75
2023/12/11 10:00:27;;;;;;;26.48;23.77;;;10.40;99.90;;;;;;5190047;28;20052;-75
2023/12/11 10:03:00;;;;;;;26.48;23.98;;;10.50;99.90;;;;;;5207555;28;20108;-74
2023/12/11 10:05:33;;;;;;;26.73;24.15;;;10.50;99.90;;;;;;5207108;28;20050;-77
2023/12/11 10:08:04;;;;;;;28.08;25.27;;;10.40;99.90;;;;;;5206970;28;20024;-74
2023/12/11 10:10:38;;;;;;;26.50;23.95;;;10.40;99.90;;;;;;5206833;28;20029;-76
2023/12/11 10:13:21;;;;;;;26.08;23.60;;;10.40;99.90;;;;;;5207846;28;20021;-77
2023/12/11 10:15:52;;;;;;;27.77;24.77;;;10.30;99.90;;;;;;5207740;28;20044;-77
2023/12/11 10:18:23;;;;;;;27.73;24.85;;;10.40;99.90;;;;;;5207416;28;20488;-75
2023/12/11 10:20:57;;;;;;;26.85;23.90;;;10.60;99.90;;;;;;5189360;28;20029;-75
2023/12/11 10:23:28;;;;;;;28.30;25.33;;;10.50;99.90;;;;;;5206612;28;20115;-75
2023/12/11 10:26:06;;;;;;;27.08;24.45;;;10.60;99.90;;;;;;5206943;28;20091;-74
2023/12/11 10:28:37;;;;;;;27.20;24.67;;;10.40;99.90;;;;;;5206046;28;20033;-75
2023/12/11 10:31:09;;;;;;;28.70;26.05;;;10.50;99.90;;;;;;5188624;28;20104;-76
2023/12/11 10:33:50;;;;;;;28.60;25.38;;;10.70;99.90;;;;;;5206275;28;20074;-74
2023/12/11 10:36:22;;;;;;;25.52;22.88;;;10.60;99.90;;;;;;5206079;28;20396;-75
2023/12/11 10:39:08;;;;;;;25.88;23.10;;;10.40;99.90;;;;;;5188247;28;20052;-75
2023/12/11 10:41:38;;;;;;;24.98;22.65;;;10.50;99.90;;;;;;5206558;28;20492;-74
2023/12/11 10:44:09;;;;;;;26.55;23.75;;;10.60;99.90;;;;;;5205511;28;20076;-74
2023/12/11 10:46:40;;;;;;;26.73;24.20;;;10.50;99.90;;;;;;5206698;28;20109;-73
2023/12/11 10:49:12;;;;;;;36.53;32.80;;;10.60;99.90;;;;;;5205945;28;20030;-74
2023/12/11 10:51:43;;;;;;;26.75;23.98;;;10.60;99.90;;;;;;5206470;28;20108;-75
2023/12/11 10:54:14;;;;;;;24.13;21.80;;;10.60;99.90;;;;;;5206236;28;20029;-74
2023/12/11 10:56:47;;;;;;;25.65;23.00;;;10.70;99.90;;;;;;5206295;28;20033;-76
2023/12/11 10:59:18;;;;;;;26.17;23.70;;;10.60;99.90;;;;;;5187939;28;20025;-74
2023/12/11 11:01:50;;;;;;;27.98;25.48;;;10.90;99.90;;;;;;5187610;28;20512;-74
2023/12/11 11:04:22;;;;;;;26.10;23.77;;;11.00;99.90;;;;;;5205382;28;20033;-75
2023/12/11 11:07:08;;;;;;;26.85;24.08;;;11.10;99.90;;;;;;5187160;28;20056;-77
2023/12/11 11:09:55;;;;;;;23.83;21.25;;;11.30;99.90;;;;;;5205488;28;20040;-75
2023/12/11 11:12:34;;;;;;;25.85;23.45;;;11.00;99.90;;;;;;5205992;28;20465;-75
2023/12/11 11:15:08;;;;;;;26.30;23.80;;;11.00;99.90;;;;;;5205373;28;20033;-75
2023/12/11 11:18:05;;;;;;;26.30;23.70;;;10.90;99.90;;;;;;5204415;28;20076;-75
2023/12/11 11:20:38;;;;;;;25.77;23.27;;;11.00;99.90;;;;;;5186823;28;20018;-74
2023/12/11 11:23:21;;;;;;;22.42;20.42;;;11.10;99.90;;;;;;5204439;28;20107;-76
2023/12/11 11:25:52;;;;;;;24.48;22.08;;;11.10;99.90;;;;;;5204412;28;20029;-74
2023/12/11 11:28:40;;;;;;;23.08;20.77;;;11.00;99.90;;;;;;5205026;28;20037;-75
2023/12/11 11:31:11;;;;;;;23.90;21.70;;;11.10;99.90;;;;;;5204068;28;20022;-74
2023/12/11 11:33:49;;;;;;;22.77;20.42;;;11.10;99.90;;;;;;5204108;28;20025;-77
2023/12/11 11:36:40;;;;;;;24.00;21.70;;;11.00;99.90;;;;;;5203882;28;20037;-76
2023/12/11 11:39:11;;;;;;;24.17;21.10;;;11.10;99.90;;;;;;5203459;28;20025;-75
2023/12/11 11:41:43;;;;;;;40.88;36.92;;;11.10;99.90;;;;;;5203416;28;20026;-73
2023/12/11 11:44:15;;;;;;;23.38;21.27;;;11.00;99.90;;;;;;5203674;28;20029;-76
2023/12/11 11:47:00;;;;;;;23.35;21.10;;;11.00;99.90;;;;;;5203932;28;20021;-73
2023/12/11 11:49:35;;;;;;;22.65;20.45;;;11.10;99.90;;;;;;5199749;28;20132;-75
2023/12/11 11:52:07;;;;;;;22.85;20.58;;;11.10;99.90;;;;;;5201241;28;20416;-76
2023/12/11 11:54:39;;;;;;;21.85;19.95;;;11.00;99.90;;;;;;5195052;28;20478;-74
2023/12/11 11:57:10;;;;;;;21.73;19.60;;;11.00;99.90;;;;;;5177160;28;20398;-76
2023/12/11 11:59:44;;;;;;;20.75;18.80;;;11.00;99.90;;;;;;5194763;28;20060;-74
2023/12/11 12:02:23;;;;;;;20.15;18.35;;;11.00;99.90;;;;;;5191203;28;20029;-75
2023/12/11 12:04:55;;;;;;;20.95;19.15;;;11.00;99.90;;;;;;5172695;28;20053;-74
2023/12/11 12:07:26;;;;;;;22.80;20.55;;;11.00;99.90;;;;;;5188207;28;20049;-74
2023/12/11 12:09:59;;;;;;;21.23;19.23;;;11.10;99.90;;;;;;5193722;28;20041;-78
2023/12/11 12:12:30;;;;;;;21.48;19.38;;;11.10;99.90;;;;;;5192387;28;20030;-74
2023/12/11 12:15:02;;;;;;;21.80;19.67;;;11.10;99.90;;;;;;5172841;28;20034;-74
2023/12/11 12:17:34;;;;;;;27.65;25.17;;;11.20;99.90;;;;;;5190346;28;20032;-74
2023/12/11 12:20:16;;;;;;;25.05;22.77;;;11.10;99.90;;;;;;5192522;28;20052;-83
2023/12/11 12:23:00;;;;;;;27.15;24.73;;;11.10;99.90;;;;;;5190118;28;20029;-76
2023/12/11 12:25:32;;;;;;;26.40;24.02;;;11.10;99.90;;;;;;5190914;28;20045;-74
2023/12/11 12:28:12;;;;;;;29.05;25.90;;;11.00;99.90;;;;;;5188566;28;20144;-75
2023/12/11 12:30:43;;;;;;;25.73;23.23;;;11.10;99.90;;;;;;5193527;28;20080;-75
2023/12/11 12:33:14;;;;;;;26.63;24.08;;;11.00;99.90;;;;;;5193797;28;20073;-74
2023/12/11 12:35:48;;;;;;;28.23;25.50;;;11.00;99.90;;;;;;5191136;28;20029;-75
2023/12/11 12:38:19;;;;;;;26.45;24.00;;;11.10;99.90;;;;;;5190452;28;20048;-75
2023/12/11 12:40:53;;;;;;;28.40;25.80;;;10.90;99.90;;;;;;5190767;28;20038;-76
2023/12/11 12:43:26;;;;;;;25.95;23.50;;;10.90;99.90;;;;;;5190052;28;20544;-74
2023/12/11 12:46:00;;;;;;;27.60;25.00;;;11.00;99.90;;;;;;5175787;28;20394;-74
2023/12/11 12:48:31;;;;;;;28.80;26.00;;;11.00;99.90;;;;;;5171970;28;20112;-77
2023/12/11 12:51:09;;;;;;;58.72;52.63;;;10.90;99.90;;;;;;5190468;28;20096;-75
2023/12/11 12:53:51;;;;;;;33.47;30.20;;;11.00;99.90;;;;;;5199838;28;20029;-73
2023/12/11 12:56:23;;;;;;;26.75;24.13;;;10.90;99.90;;;;;;5185073;28;20025;-78
2023/12/11 12:58:57;;;;;;;24.02;21.70;;;10.90;99.90;;;;;;5202614;28;20017;-75